METAR AND TAF INFORMATION
METAR FOR DAOO
ADDS - METARS form results

(0936 UTC 14 October 2019)
Data provider http://aviationweather.gov/metar/data/
 
METAR text: DAOO 140930Z 24018KT 9999 FEW013 SCT026 27/19 Q1016
Conditions at: DAOO (ORAN/ES SENIA , DZ) observed 0930 UTC 14 October 2019
Temperature: 27.0°C (81°F)
Dewpoint: 19.0°C (66°F) [RH = 62%]
Pressure (altimeter): 30.00 inches Hg (1016.0 mb)
Winds: from the WSW (240 degrees) at 21 MPH (18 knots; 9.3 m/s)
Visibility: 6 or more miles (10+ km)
Ceiling: at least 12,000 feet AGL
Clouds: few clouds at 1300 feet AGL
scattered clouds at 2600 feet AGL
Weather: no significant weather observed at this time

METAR text: DAOO 140900Z 24015KT 9999 FEW013 SCT026 25/19 Q1015
Conditions at: DAOO (ORAN/ES SENIA , DZ) observed 0900 UTC 14 October 2019
Temperature: 25.0°C (77°F)
Dewpoint: 19.0°C (66°F) [RH = 69%]
Pressure (altimeter): 29.97 inches Hg (1015.0 mb)
Winds: from the WSW (240 degrees) at 17 MPH (15 knots; 7.7 m/s)
Visibility: 6 or more miles (10+ km)
Ceiling: at least 12,000 feet AGL
Clouds: few clouds at 1300 feet AGL
scattered clouds at 2600 feet AGL
Weather: no significant weather observed at this time

Forecast for: DAOO (ORAN/ES SENIA , DZ)
Text: TAF DAOO 140500Z 1406/1506 VRB02KT CAVOK
Forecast period: 0600 UTC 14 October 2019 to 0600 UTC 15 October 2019
Forecast type: FROM: standard forecast or significant change
Winds: variable direction winds at 2 MPH (2 knots; 1.0 m/s)
Visibility: 6 or more miles 10+ km)
Ceiling: unknown
Clouds: missing
Weather: NSW  (no significant weather)
Text: BECMG 1406/1409 25020G30KT
Forecast period: 0600 UTC 14 October 2019 to 0600 UTC 15 October 2019
Forecast type: BECOMING: Conditions expected to become as follows by 0900 UTC 14 October 2019
Winds: from the WSW (250 degrees) at 23 MPH (20 knots; 10.3 m/s)
gusting to 34 MPH (30 knots; 15.4 m/s)
Visibility: 6 or more miles 10+ km)
Ceiling: unknown
Clouds: missing
Weather: NSW  (no significant weather)
Text: PROB30
Forecast period: 1500 to 2000 UTC 14 October 2019
Forecast type: TEMPORARY: The following changes expected for less than half the time period
Visibility: missing
Ceiling: 2600 feet AGL
Clouds: few clouds at 2300 feet AGL
broken clouds at 2600 feet AGL
Weather: -TSRA  (light rain associated with thunderstorm(s))

 AIRPORT MAP

 RUNWAY INFORMATION
Runway 07 Runway length 10039 ft Runway width 148 ft
Runway elevation 295 ft Runway displaced threshold 0 ft Runway heading 67
Runway 25 Runway length 10039 ft Runway width 148 ft
Runway elevation 295 ft Runway displaced threshold 196 ft Runway heading 247

 AIRPORT FREQUENCIES
Type APP Name ORAN APP Frequency 128.2 MHZ
Type TWR Name ORAN TWR Frequency 118.1 MHZ

 AIRPORT NEAR NAVIGATION AIDS
Type VOR-DME Name Oran Frequency 114000 KHZ



Powered by Virtual Airlines Manager [v2.6.2]